sensor_id;sensor_type;location;lat;lon;timestamp;temperature;humidity
13086;DHT22;6609;49.882;8.664;2022-11-20T00:00:19;4.00;93.50
13086;DHT22;6609;49.882;8.664;2022-11-20T00:02:45;4.00;93.40
13086;DHT22;6609;49.882;8.664;2022-11-20T00:05:12;4.00;93.40
13086;DHT22;6609;49.882;8.664;2022-11-20T00:07:39;4.00;93.50
13086;DHT22;6609;49.882;8.664;2022-11-20T00:10:06;4.00;93.40
13086;DHT22;6609;49.882;8.664;2022-11-20T00:12:33;4.10;93.40
13086;DHT22;6609;49.882;8.664;2022-11-20T00:15:01;4.00;93.40
13086;DHT22;6609;49.882;8.664;2022-11-20T00:17:28;4.00;93.40
13086;DHT22;6609;49.882;8.664;2022-11-20T00:19:55;4.00;93.40
13086;DHT22;6609;49.882;8.664;2022-11-20T00:22:21;4.10;93.40
13086;DHT22;6609;49.882;8.664;2022-11-20T00:24:48;4.10;93.40
13086;DHT22;6609;49.882;8.664;2022-11-20T00:27:15;4.00;93.40
13086;DHT22;6609;49.882;8.664;2022-11-20T00:29:41;4.00;93.20
13086;DHT22;6609;49.882;8.664;2022-11-20T00:32:09;3.90;93.30
13086;DHT22;6609;49.882;8.664;2022-11-20T00:34:36;3.90;93.30
13086;DHT22;6609;49.882;8.664;2022-11-20T00:37:03;3.90;93.30
13086;DHT22;6609;49.882;8.664;2022-11-20T00:39:29;3.90;93.40
13086;DHT22;6609;49.882;8.664;2022-11-20T00:41:56;3.90;93.30
13086;DHT22;6609;49.882;8.664;2022-11-20T00:44:23;3.90;93.30
13086;DHT22;6609;49.882;8.664;2022-11-20T00:46:49;3.90;93.10
13086;DHT22;6609;49.882;8.664;2022-11-20T00:49:17;3.90;93.60
13086;DHT22;6609;49.882;8.664;2022-11-20T00:51:44;3.90;93.40
13086;DHT22;6609;49.882;8.664;2022-11-20T00:54:11;3.90;93.50
13086;DHT22;6609;49.882;8.664;2022-11-20T00:56:37;3.90;93.40
13086;DHT22;6609;49.882;8.664;2022-11-20T00:59:05;3.90;93.40
13086;DHT22;6609;49.882;8.664;2022-11-20T01:01:32;3.90;93.30
13086;DHT22;6609;49.882;8.664;2022-11-20T01:04:02;3.90;93.40
13086;DHT22;6609;49.882;8.664;2022-11-20T01:06:32;3.90;93.40
13086;DHT22;6609;49.882;8.664;2022-11-20T01:09:01;3.90;93.50
13086;DHT22;6609;49.882;8.664;2022-11-20T01:11:30;3.90;93.60
13086;DHT22;6609;49.882;8.664;2022-11-20T01:13:58;3.90;93.60
13086;DHT22;6609;49.882;8.664;2022-11-20T01:16:28;3.90;93.60
13086;DHT22;6609;49.882;8.664;2022-11-20T01:18:57;3.90;93.70
13086;DHT22;6609;49.882;8.664;2022-11-20T01:21:26;3.90;93.70
13086;DHT22;6609;49.882;8.664;2022-11-20T01:23:54;3.90;93.70
13086;DHT22;6609;49.882;8.664;2022-11-20T01:26:23;3.90;93.70
13086;DHT22;6609;49.882;8.664;2022-11-20T01:28:50;3.90;93.70
13086;DHT22;6609;49.882;8.664;2022-11-20T01:31:20;3.90;93.70
13086;DHT22;6609;49.882;8.664;2022-11-20T01:33:48;3.90;93.70
13086;DHT22;6609;49.882;8.664;2022-11-20T01:36:16;3.90;93.90
13086;DHT22;6609;49.882;8.664;2022-11-20T01:38:43;3.90;93.90
13086;DHT22;6609;49.882;8.664;2022-11-20T01:41:13;3.90;93.80
13086;DHT22;6609;49.882;8.664;2022-11-20T01:44:02;4.00;93.90
13086;DHT22;6609;49.882;8.664;2022-11-20T01:46:28;4.00;94.00
13086;DHT22;6609;49.882;8.664;2022-11-20T01:48:58;6.30;94.80
13086;DHT22;6609;49.882;8.664;2022-11-20T01:51:32;4.10;94.00
13086;DHT22;6609;49.882;8.664;2022-11-20T01:54:02;4.10;93.90
13086;DHT22;6609;49.882;8.664;2022-11-20T01:56:35;4.10;93.80
13086;DHT22;6609;49.882;8.664;2022-11-20T01:59:04;4.10;93.80
13086;DHT22;6609;49.882;8.664;2022-11-20T02:01:32;4.10;93.80
13086;DHT22;6609;49.882;8.664;2022-11-20T02:03:59;4.10;93.80
13086;DHT22;6609;49.882;8.664;2022-11-20T02:06:29;4.10;93.80
13086;DHT22;6609;49.882;8.664;2022-11-20T02:08:57;4.10;93.80
13086;DHT22;6609;49.882;8.664;2022-11-20T02:11:24;4.10;93.80
13086;DHT22;6609;49.882;8.664;2022-11-20T02:13:53;4.20;93.80
13086;DHT22;6609;49.882;8.664;2022-11-20T02:16:22;4.20;93.80
13086;DHT22;6609;49.882;8.664;2022-11-20T02:18:53;4.20;93.80
13086;DHT22;6609;49.882;8.664;2022-11-20T02:21:27;4.20;93.80
13086;DHT22;6609;49.882;8.664;2022-11-20T02:24:04;4.20;93.80
13086;DHT22;6609;49.882;8.664;2022-11-20T02:26:33;4.10;93.70
13086;DHT22;6609;49.882;8.664;2022-11-20T02:29:01;4.10;93.80
13086;DHT22;6609;49.882;8.664;2022-11-20T02:31:28;4.10;93.80
13086;DHT22;6609;49.882;8.664;2022-11-20T02:33:55;4.10;93.80
13086;DHT22;6609;49.882;8.664;2022-11-20T02:36:24;4.10;93.90
13086;DHT22;6609;49.882;8.664;2022-11-20T02:38:52;4.10;93.90
13086;DHT22;6609;49.882;8.664;2022-11-20T02:41:21;4.10;93.90
13086;DHT22;6609;49.882;8.664;2022-11-20T02:43:47;4.20;94.00
13086;DHT22;6609;49.882;8.664;2022-11-20T02:46:14;4.20;94.00
13086;DHT22;6609;49.882;8.664;2022-11-20T02:48:41;4.10;93.90
13086;DHT22;6609;49.882;8.664;2022-11-20T02:51:07;4.30;94.00
13086;DHT22;6609;49.882;8.664;2022-11-20T02:53:34;4.20;93.80
13086;DHT22;6609;49.882;8.664;2022-11-20T02:56:01;4.20;93.80
13086;DHT22;6609;49.882;8.664;2022-11-20T02:58:29;4.20;93.90
13086;DHT22;6609;49.882;8.664;2022-11-20T03:00:55;4.20;93.90
13086;DHT22;6609;49.882;8.664;2022-11-20T03:03:22;4.20;93.90
13086;DHT22;6609;49.882;8.664;2022-11-20T03:05:49;4.30;94.00
13086;DHT22;6609;49.882;8.664;2022-11-20T03:08:16;4.30;93.90
13086;DHT22;6609;49.882;8.664;2022-11-20T03:10:42;4.30;93.90
13086;DHT22;6609;49.882;8.664;2022-11-20T03:13:09;4.30;94.00
13086;DHT22;6609;49.882;8.664;2022-11-20T03:15:37;4.30;94.20
13086;DHT22;6609;49.882;8.664;2022-11-20T03:18:04;4.30;93.80
13086;DHT22;6609;49.882;8.664;2022-11-20T03:20:32;4.30;93.90
13086;DHT22;6609;49.882;8.664;2022-11-20T03:22:59;4.30;93.90
13086;DHT22;6609;49.882;8.664;2022-11-20T03:25:26;4.30;93.90
13086;DHT22;6609;49.882;8.664;2022-11-20T03:27:54;4.30;93.80
13086;DHT22;6609;49.882;8.664;2022-11-20T03:30:21;4.40;94.00
13086;DHT22;6609;49.882;8.664;2022-11-20T03:32:49;4.40;94.00
13086;DHT22;6609;49.882;8.664;2022-11-20T03:35:19;4.40;94.00
13086;DHT22;6609;49.882;8.664;2022-11-20T03:37:45;4.40;94.00
13086;DHT22;6609;49.882;8.664;2022-11-20T03:40:12;4.50;94.00
13086;DHT22;6609;49.882;8.664;2022-11-20T03:42:39;4.50;94.00
13086;DHT22;6609;49.882;8.664;2022-11-20T03:45:12;4.50;94.00
13086;DHT22;6609;49.882;8.664;2022-11-20T03:47:39;4.50;94.10
13086;DHT22;6609;49.882;8.664;2022-11-20T03:50:09;4.50;94.10
13086;DHT22;6609;49.882;8.664;2022-11-20T03:52:35;4.50;94.10
13086;DHT22;6609;49.882;8.664;2022-11-20T03:55:03;4.50;94.20
13086;DHT22;6609;49.882;8.664;2022-11-20T03:57:29;4.60;94.20
13086;DHT22;6609;49.882;8.664;2022-11-20T03:59:56;4.60;94.10
13086;DHT22;6609;49.882;8.664;2022-11-20T04:02:23;4.60;94.20
13086;DHT22;6609;49.882;8.664;2022-11-20T04:04:49;4.50;94.10
13086;DHT22;6609;49.882;8.664;2022-11-20T04:07:17;4.50;94.00
13086;DHT22;6609;49.882;8.664;2022-11-20T04:09:44;4.60;94.10
13086;DHT22;6609;49.882;8.664;2022-11-20T04:12:11;4.60;94.00
13086;DHT22;6609;49.882;8.664;2022-11-20T04:14:37;4.60;94.10
13086;DHT22;6609;49.882;8.664;2022-11-20T04:17:04;4.50;94.00
13086;DHT22;6609;49.882;8.664;2022-11-20T04:19:31;4.60;94.00
13086;DHT22;6609;49.882;8.664;2022-11-20T04:21:57;4.50;93.90
13086;DHT22;6609;49.882;8.664;2022-11-20T04:24:26;4.50;93.90
13086;DHT22;6609;49.882;8.664;2022-11-20T04:26:52;4.40;93.60
13086;DHT22;6609;49.882;8.664;2022-11-20T04:29:19;4.50;93.90
13086;DHT22;6609;49.882;8.664;2022-11-20T04:31:46;4.50;93.90
13086;DHT22;6609;49.882;8.664;2022-11-20T04:34:13;4.60;94.00
13086;DHT22;6609;49.882;8.664;2022-11-20T04:36:39;4.50;93.90
13086;DHT22;6609;49.882;8.664;2022-11-20T04:39:13;4.60;94.00
13086;DHT22;6609;49.882;8.664;2022-11-20T04:41:41;4.60;93.90
13086;DHT22;6609;49.882;8.664;2022-11-20T04:44:09;4.60;94.00
13086;DHT22;6609;49.882;8.664;2022-11-20T04:46:37;4.60;94.00
13086;DHT22;6609;49.882;8.664;2022-11-20T04:49:04;4.50;93.90
13086;DHT22;6609;49.882;8.664;2022-11-20T04:51:31;4.50;93.90
13086;DHT22;6609;49.882;8.664;2022-11-20T04:53:58;4.60;93.90
13086;DHT22;6609;49.882;8.664;2022-11-20T04:56:25;4.60;94.00
13086;DHT22;6609;49.882;8.664;2022-11-20T04:58:53;4.60;94.10
13086;DHT22;6609;49.882;8.664;2022-11-20T05:01:21;4.60;94.00
13086;DHT22;6609;49.882;8.664;2022-11-20T05:03:49;4.60;93.90
13086;DHT22;6609;49.882;8.664;2022-11-20T05:06:19;4.60;93.90
13086;DHT22;6609;49.882;8.664;2022-11-20T05:08:46;4.60;94.00
13086;DHT22;6609;49.882;8.664;2022-11-20T05:11:14;4.60;93.90
13086;DHT22;6609;49.882;8.664;2022-11-20T05:13:41;4.60;93.90
13086;DHT22;6609;49.882;8.664;2022-11-20T05:16:11;4.60;94.00
13086;DHT22;6609;49.882;8.664;2022-11-20T05:18:38;4.70;94.00
13086;DHT22;6609;49.882;8.664;2022-11-20T05:21:06;4.60;93.90
13086;DHT22;6609;49.882;8.664;2022-11-20T05:23:33;4.70;94.00
13086;DHT22;6609;49.882;8.664;2022-11-20T05:26:00;4.70;94.00
13086;DHT22;6609;49.882;8.664;2022-11-20T05:28:28;4.70;94.00
13086;DHT22;6609;49.882;8.664;2022-11-20T05:31:03;4.70;93.90
13086;DHT22;6609;49.882;8.664;2022-11-20T05:33:31;4.60;93.90
13086;DHT22;6609;49.882;8.664;2022-11-20T05:35:58;4.60;94.00
13086;DHT22;6609;49.882;8.664;2022-11-20T05:38:24;4.70;94.00
13086;DHT22;6609;49.882;8.664;2022-11-20T05:40:51;4.70;93.90
13086;DHT22;6609;49.882;8.664;2022-11-20T05:43:18;4.70;94.30
13086;DHT22;6609;49.882;8.664;2022-11-20T05:45:52;4.70;94.00
13086;DHT22;6609;49.882;8.664;2022-11-20T05:48:18;4.70;93.90
13086;DHT22;6609;49.882;8.664;2022-11-20T05:50:46;4.70;93.90
13086;DHT22;6609;49.882;8.664;2022-11-20T05:53:13;4.70;93.80
13086;DHT22;6609;49.882;8.664;2022-11-20T05:55:40;4.70;93.80
13086;DHT22;6609;49.882;8.664;2022-11-20T05:58:07;4.70;93.80
13086;DHT22;6609;49.882;8.664;2022-11-20T06:00:33;4.70;93.90
13086;DHT22;6609;49.882;8.664;2022-11-20T06:03:00;4.70;93.90
13086;DHT22;6609;49.882;8.664;2022-11-20T06:05:27;4.70;93.90
13086;DHT22;6609;49.882;8.664;2022-11-20T06:07:55;4.70;93.90
13086;DHT22;6609;49.882;8.664;2022-11-20T06:10:22;4.70;93.90
13086;DHT22;6609;49.882;8.664;2022-11-20T06:12:48;4.70;93.90
13086;DHT22;6609;49.882;8.664;2022-11-20T06:15:15;4.70;93.90
13086;DHT22;6609;49.882;8.664;2022-11-20T06:17:42;4.70;93.90
13086;DHT22;6609;49.882;8.664;2022-11-20T06:20:09;4.70;93.80
13086;DHT22;6609;49.882;8.664;2022-11-20T06:22:36;4.70;93.90
13086;DHT22;6609;49.882;8.664;2022-11-20T06:25:05;4.60;94.00
13086;DHT22;6609;49.882;8.664;2022-11-20T06:27:31;4.70;94.10
13086;DHT22;6609;49.882;8.664;2022-11-20T06:29:58;4.70;94.00
13086;DHT22;6609;49.882;8.664;2022-11-20T06:32:25;4.70;94.00
13086;DHT22;6609;49.882;8.664;2022-11-20T06:34:51;4.70;94.00
13086;DHT22;6609;49.882;8.664;2022-11-20T06:37:18;4.70;94.00
13086;DHT22;6609;49.882;8.664;2022-11-20T06:39:45;4.70;94.00
13086;DHT22;6609;49.882;8.664;2022-11-20T06:42:13;4.70;94.00
13086;DHT22;6609;49.882;8.664;2022-11-20T06:44:39;4.60;93.80
13086;DHT22;6609;49.882;8.664;2022-11-20T06:47:06;4.70;94.00
13086;DHT22;6609;49.882;8.664;2022-11-20T06:49:33;4.60;94.00
13086;DHT22;6609;49.882;8.664;2022-11-20T06:52:02;4.60;93.90
13086;DHT22;6609;49.882;8.664;2022-11-20T06:54:29;4.60;93.90
13086;DHT22;6609;49.882;8.664;2022-11-20T06:56:56;4.60;93.70
13086;DHT22;6609;49.882;8.664;2022-11-20T06:59:24;4.60;94.00
13086;DHT22;6609;49.882;8.664;2022-11-20T07:01:50;4.70;94.00
13086;DHT22;6609;49.882;8.664;2022-11-20T07:04:17;4.60;94.00
13086;DHT22;6609;49.882;8.664;2022-11-20T07:06:44;4.70;93.70
13086;DHT22;6609;49.882;8.664;2022-11-20T07:09:11;4.70;94.00
13086;DHT22;6609;49.882;8.664;2022-11-20T07:11:37;4.60;93.90
13086;DHT22;6609;49.882;8.664;2022-11-20T07:14:04;4.70;94.00
13086;DHT22;6609;49.882;8.664;2022-11-20T07:16:32;4.70;94.00
13086;DHT22;6609;49.882;8.664;2022-11-20T07:18:59;4.70;94.30
13086;DHT22;6609;49.882;8.664;2022-11-20T07:21:26;4.70;93.90
13086;DHT22;6609;49.882;8.664;2022-11-20T07:23:52;4.60;93.90
13086;DHT22;6609;49.882;8.664;2022-11-20T07:26:19;4.70;93.80
13086;DHT22;6609;49.882;8.664;2022-11-20T07:28:46;4.60;93.70
13086;DHT22;6609;49.882;8.664;2022-11-20T07:31:13;4.60;93.70
13086;DHT22;6609;49.882;8.664;2022-11-20T07:33:41;4.60;93.80
13086;DHT22;6609;49.882;8.664;2022-11-20T07:36:08;4.60;93.70
13086;DHT22;6609;49.882;8.664;2022-11-20T07:38:34;4.60;93.80
13086;DHT22;6609;49.882;8.664;2022-11-20T07:41:01;4.60;93.80
13086;DHT22;6609;49.882;8.664;2022-11-20T07:43:28;4.60;93.90
13086;DHT22;6609;49.882;8.664;2022-11-20T07:45:55;4.60;93.80
13086;DHT22;6609;49.882;8.664;2022-11-20T07:48:22;4.60;93.80
13086;DHT22;6609;49.882;8.664;2022-11-20T07:50:53;4.60;93.80
13086;DHT22;6609;49.882;8.664;2022-11-20T07:53:20;4.60;93.80
13086;DHT22;6609;49.882;8.664;2022-11-20T07:55:47;4.60;93.80
13086;DHT22;6609;49.882;8.664;2022-11-20T07:58:13;4.60;93.90
13086;DHT22;6609;49.882;8.664;2022-11-20T08:00:40;4.60;93.80
13086;DHT22;6609;49.882;8.664;2022-11-20T08:03:07;4.70;93.70
13086;DHT22;6609;49.882;8.664;2022-11-20T08:05:34;4.60;93.70
13086;DHT22;6609;49.882;8.664;2022-11-20T08:08:02;4.70;93.80
13086;DHT22;6609;49.882;8.664;2022-11-20T08:10:29;4.70;93.80
13086;DHT22;6609;49.882;8.664;2022-11-20T08:12:56;4.70;93.80
13086;DHT22;6609;49.882;8.664;2022-11-20T08:15:40;4.70;93.80
13086;DHT22;6609;49.882;8.664;2022-11-20T08:18:08;4.80;93.80
13086;DHT22;6609;49.882;8.664;2022-11-20T08:20:36;4.70;93.80
13086;DHT22;6609;49.882;8.664;2022-11-20T08:23:06;4.80;93.90
13086;DHT22;6609;49.882;8.664;2022-11-20T08:25:33;4.80;93.80
13086;DHT22;6609;49.882;8.664;2022-11-20T08:28:01;4.80;93.80
13086;DHT22;6609;49.882;8.664;2022-11-20T08:30:29;4.80;93.70
13086;DHT22;6609;49.882;8.664;2022-11-20T08:33:00;4.90;93.80
13086;DHT22;6609;49.882;8.664;2022-11-20T08:35:27;4.90;93.80
13086;DHT22;6609;49.882;8.664;2022-11-20T08:37:54;5.00;93.50
13086;DHT22;6609;49.882;8.664;2022-11-20T08:40:22;5.00;93.70
13086;DHT22;6609;49.882;8.664;2022-11-20T08:42:49;5.10;93.70
13086;DHT22;6609;49.882;8.664;2022-11-20T08:45:17;5.20;93.80
13086;DHT22;6609;49.882;8.664;2022-11-20T08:47:45;5.20;93.60
13086;DHT22;6609;49.882;8.664;2022-11-20T08:50:13;5.20;93.60
13086;DHT22;6609;49.882;8.664;2022-11-20T08:52:40;5.30;93.70
13086;DHT22;6609;49.882;8.664;2022-11-20T08:55:08;5.40;93.40
13086;DHT22;6609;49.882;8.664;2022-11-20T08:57:37;5.40;93.40
13086;DHT22;6609;49.882;8.664;2022-11-20T09:00:06;5.40;93.60
13086;DHT22;6609;49.882;8.664;2022-11-20T09:02:33;5.50;93.80
13086;DHT22;6609;49.882;8.664;2022-11-20T09:05:00;5.60;94.20
13086;DHT22;6609;49.882;8.664;2022-11-20T09:07:28;5.90;94.50
13086;DHT22;6609;49.882;8.664;2022-11-20T09:09:55;6.30;94.50
13086;DHT22;6609;49.882;8.664;2022-11-20T09:12:22;6.50;93.90
13086;DHT22;6609;49.882;8.664;2022-11-20T09:14:50;6.50;93.40
13086;DHT22;6609;49.882;8.664;2022-11-20T09:17:17;6.50;92.50
13086;DHT22;6609;49.882;8.664;2022-11-20T09:19:45;6.60;92.70
13086;DHT22;6609;49.882;8.664;2022-11-20T09:22:12;6.60;92.50
13086;DHT22;6609;49.882;8.664;2022-11-20T09:24:39;6.50;92.20
13086;DHT22;6609;49.882;8.664;2022-11-20T09:29:32;6.20;91.90
13086;DHT22;6609;49.882;8.664;2022-11-20T09:32:01;6.20;92.10
13086;DHT22;6609;49.882;8.664;2022-11-20T09:34:27;6.20;92.30
13086;DHT22;6609;49.882;8.664;2022-11-20T09:36:54;6.20;92.40
13086;DHT22;6609;49.882;8.664;2022-11-20T09:39:21;6.20;92.60
13086;DHT22;6609;49.882;8.664;2022-11-20T09:44:55;6.10;92.40
13086;DHT22;6609;49.882;8.664;2022-11-20T09:47:40;6.10;92.60
13086;DHT22;6609;49.882;8.664;2022-11-20T09:50:20;6.10;92.70
13086;DHT22;6609;49.882;8.664;2022-11-20T09:52:58;6.10;92.80
13086;DHT22;6609;49.882;8.664;2022-11-20T09:55:29;6.10;92.80
13086;DHT22;6609;49.882;8.664;2022-11-20T09:57:58;6.10;93.00
13086;DHT22;6609;49.882;8.664;2022-11-20T10:00:26;6.10;92.90
13086;DHT22;6609;49.882;8.664;2022-11-20T10:03:00;6.10;92.80
13086;DHT22;6609;49.882;8.664;2022-11-20T10:05:31;6.10;92.90
13086;DHT22;6609;49.882;8.664;2022-11-20T10:08:10;6.00;92.50
13086;DHT22;6609;49.882;8.664;2022-11-20T10:10:43;6.00;92.70
13086;DHT22;6609;49.882;8.664;2022-11-20T10:13:23;5.90;92.60
13086;DHT22;6609;49.882;8.664;2022-11-20T10:16:03;5.90;92.90
13086;DHT22;6609;49.882;8.664;2022-11-20T10:18:47;5.80;92.70
13086;DHT22;6609;49.882;8.664;2022-11-20T10:21:26;5.90;92.70
13086;DHT22;6609;49.882;8.664;2022-11-20T10:24:23;5.90;92.90
13086;DHT22;6609;49.882;8.664;2022-11-20T10:26:56;5.90;92.80
13086;DHT22;6609;49.882;8.664;2022-11-20T10:29:29;5.90;93.00
13086;DHT22;6609;49.882;8.664;2022-11-20T10:32:03;5.90;93.10
13086;DHT22;6609;49.882;8.664;2022-11-20T10:34:40;6.00;93.20
13086;DHT22;6609;49.882;8.664;2022-11-20T10:37:14;6.00;93.10
13086;DHT22;6609;49.882;8.664;2022-11-20T10:39:50;6.00;93.10
13086;DHT22;6609;49.882;8.664;2022-11-20T10:42:29;6.00;93.10
13086;DHT22;6609;49.882;8.664;2022-11-20T10:45:02;6.00;93.10
13086;DHT22;6609;49.882;8.664;2022-11-20T10:47:36;6.00;93.10
13086;DHT22;6609;49.882;8.664;2022-11-20T10:50:09;6.00;93.00
13086;DHT22;6609;49.882;8.664;2022-11-20T10:52:42;6.00;93.30
13086;DHT22;6609;49.882;8.664;2022-11-20T10:55:27;6.00;93.40
13086;DHT22;6609;49.882;8.664;2022-11-20T10:58:01;6.00;93.30
13086;DHT22;6609;49.882;8.664;2022-11-20T11:00:31;6.00;93.00
13086;DHT22;6609;49.882;8.664;2022-11-20T11:02:58;6.10;93.30
13086;DHT22;6609;49.882;8.664;2022-11-20T11:05:34;6.10;93.20
13086;DHT22;6609;49.882;8.664;2022-11-20T11:08:03;6.10;93.20
13086;DHT22;6609;49.882;8.664;2022-11-20T11:10:37;6.00;93.10
13086;DHT22;6609;49.882;8.664;2022-11-20T11:13:06;6.10;93.00
13086;DHT22;6609;49.882;8.664;2022-11-20T11:15:38;6.00;93.20
13086;DHT22;6609;49.882;8.664;2022-11-20T11:18:08;6.10;93.30
13086;DHT22;6609;49.882;8.664;2022-11-20T11:20:37;6.10;93.30
13086;DHT22;6609;49.882;8.664;2022-11-20T11:23:04;6.10;93.20
13086;DHT22;6609;49.882;8.664;2022-11-20T11:25:32;6.20;93.20
13086;DHT22;6609;49.882;8.664;2022-11-20T11:28:01;6.20;93.10
13086;DHT22;6609;49.882;8.664;2022-11-20T11:30:30;6.20;93.30
13086;DHT22;6609;49.882;8.664;2022-11-20T11:33:10;6.20;93.20
13086;DHT22;6609;49.882;8.664;2022-11-20T11:35:45;6.30;93.40
13086;DHT22;6609;49.882;8.664;2022-11-20T11:38:15;6.30;93.30
13086;DHT22;6609;49.882;8.664;2022-11-20T11:40:43;6.40;93.30
13086;DHT22;6609;49.882;8.664;2022-11-20T11:43:19;6.50;93.40
13086;DHT22;6609;49.882;8.664;2022-11-20T11:46:08;6.60;93.10
13086;DHT22;6609;49.882;8.664;2022-11-20T11:48:40;6.60;93.30
13086;DHT22;6609;49.882;8.664;2022-11-20T11:51:09;6.60;93.10
13086;DHT22;6609;49.882;8.664;2022-11-20T11:53:40;6.50;93.00
13086;DHT22;6609;49.882;8.664;2022-11-20T11:56:09;6.50;92.90
13086;DHT22;6609;49.882;8.664;2022-11-20T11:58:45;6.50;92.80
13086;DHT22;6609;49.882;8.664;2022-11-20T12:01:24;6.50;92.80
13086;DHT22;6609;49.882;8.664;2022-11-20T12:03:59;6.50;93.30
13086;DHT22;6609;49.882;8.664;2022-11-20T12:06:31;6.50;93.10
13086;DHT22;6609;49.882;8.664;2022-11-20T12:09:02;6.50;93.00
13086;DHT22;6609;49.882;8.664;2022-11-20T12:11:32;6.60;93.00
13086;DHT22;6609;49.882;8.664;2022-11-20T12:14:04;6.60;92.80
13086;DHT22;6609;49.882;8.664;2022-11-20T12:16:37;6.70;92.80
13086;DHT22;6609;49.882;8.664;2022-11-20T12:19:09;6.70;93.10
13086;DHT22;6609;49.882;8.664;2022-11-20T12:21:47;6.70;93.10
13086;DHT22;6609;49.882;8.664;2022-11-20T12:24:37;6.80;92.70
13086;DHT22;6609;49.882;8.664;2022-11-20T12:27:27;6.80;92.70
13086;DHT22;6609;49.882;8.664;2022-11-20T12:30:01;6.90;92.80
13086;DHT22;6609;49.882;8.664;2022-11-20T12:35:59;6.90;92.60
13086;DHT22;6609;49.882;8.664;2022-11-20T12:41:58;6.70;92.50
13086;DHT22;6609;49.882;8.664;2022-11-20T12:45:02;6.70;92.80
13086;DHT22;6609;49.882;8.664;2022-11-20T12:47:46;6.80;92.80
13086;DHT22;6609;49.882;8.664;2022-11-20T12:50:22;6.80;92.90
13086;DHT22;6609;49.882;8.664;2022-11-20T12:52:57;6.80;92.60
13086;DHT22;6609;49.882;8.664;2022-11-20T12:55:33;6.90;92.60
13086;DHT22;6609;49.882;8.664;2022-11-20T12:58:06;6.80;92.80
13086;DHT22;6609;49.882;8.664;2022-11-20T13:00:42;6.80;92.80
13086;DHT22;6609;49.882;8.664;2022-11-20T13:03:27;6.90;93.00
13086;DHT22;6609;49.882;8.664;2022-11-20T13:06:04;7.00;93.00
13086;DHT22;6609;49.882;8.664;2022-11-20T13:08:34;6.90;93.10
13086;DHT22;6609;49.882;8.664;2022-11-20T13:11:06;7.00;92.90
13086;DHT22;6609;49.882;8.664;2022-11-20T13:13:45;7.00;93.20
13086;DHT22;6609;49.882;8.664;2022-11-20T13:16:19;7.00;93.10
13086;DHT22;6609;49.882;8.664;2022-11-20T13:18:51;6.90;93.10
13086;DHT22;6609;49.882;8.664;2022-11-20T13:21:22;6.90;93.10
13086;DHT22;6609;49.882;8.664;2022-11-20T13:23:49;6.90;93.20
13086;DHT22;6609;49.882;8.664;2022-11-20T13:26:19;6.90;93.10
13086;DHT22;6609;49.882;8.664;2022-11-20T13:28:59;7.00;93.20
13086;DHT22;6609;49.882;8.664;2022-11-20T13:31:32;7.00;93.40
13086;DHT22;6609;49.882;8.664;2022-11-20T13:34:02;7.00;93.20
13086;DHT22;6609;49.882;8.664;2022-11-20T13:36:30;7.00;93.40
13086;DHT22;6609;49.882;8.664;2022-11-20T13:38:57;7.00;93.60
13086;DHT22;6609;49.882;8.664;2022-11-20T13:41:26;7.20;93.40
13086;DHT22;6609;49.882;8.664;2022-11-20T13:44:10;7.20;93.20
13086;DHT22;6609;49.882;8.664;2022-11-20T13:46:40;7.20;93.50
13086;DHT22;6609;49.882;8.664;2022-11-20T13:49:10;7.20;93.50
13086;DHT22;6609;49.882;8.664;2022-11-20T13:51:44;7.20;93.50
13086;DHT22;6609;49.882;8.664;2022-11-20T13:54:45;7.30;93.20
13086;DHT22;6609;49.882;8.664;2022-11-20T14:00:21;7.30;93.40
13086;DHT22;6609;49.882;8.664;2022-11-20T14:02:59;7.30;93.40
13086;DHT22;6609;49.882;8.664;2022-11-20T14:05:28;7.30;93.30
13086;DHT22;6609;49.882;8.664;2022-11-20T14:07:58;7.30;93.50
13086;DHT22;6609;49.882;8.664;2022-11-20T14:10:27;7.30;93.50
13086;DHT22;6609;49.882;8.664;2022-11-20T14:12:55;7.30;93.50
13086;DHT22;6609;49.882;8.664;2022-11-20T14:15:29;7.30;93.30
13086;DHT22;6609;49.882;8.664;2022-11-20T14:17:56;7.20;93.30
13086;DHT22;6609;49.882;8.664;2022-11-20T14:20:26;7.30;93.50
13086;DHT22;6609;49.882;8.664;2022-11-20T14:22:54;7.20;93.60
13086;DHT22;6609;49.882;8.664;2022-11-20T14:25:23;7.20;93.40
13086;DHT22;6609;49.882;8.664;2022-11-20T14:27:53;7.20;93.70
13086;DHT22;6609;49.882;8.664;2022-11-20T14:30:23;8.00;94.00
13086;DHT22;6609;49.882;8.664;2022-11-20T14:32:53;7.20;93.70
13086;DHT22;6609;49.882;8.664;2022-11-20T14:35:24;7.20;93.90
13086;DHT22;6609;49.882;8.664;2022-11-20T14:37:51;7.20;93.90
13086;DHT22;6609;49.882;8.664;2022-11-20T14:40:27;7.20;93.90
13086;DHT22;6609;49.882;8.664;2022-11-20T14:42:55;7.20;93.70
13086;DHT22;6609;49.882;8.664;2022-11-20T14:45:22;7.20;93.70
13086;DHT22;6609;49.882;8.664;2022-11-20T14:47:52;7.20;93.90
13086;DHT22;6609;49.882;8.664;2022-11-20T14:50:22;7.10;93.90
13086;DHT22;6609;49.882;8.664;2022-11-20T14:52:51;7.10;94.00
13086;DHT22;6609;49.882;8.664;2022-11-20T14:55:32;7.10;94.10
13086;DHT22;6609;49.882;8.664;2022-11-20T14:58:01;7.10;94.10
13086;DHT22;6609;49.882;8.664;2022-11-20T15:00:29;7.10;94.00
13086;DHT22;6609;49.882;8.664;2022-11-20T15:02:57;7.20;94.20
13086;DHT22;6609;49.882;8.664;2022-11-20T15:05:26;7.20;94.00
13086;DHT22;6609;49.882;8.664;2022-11-20T15:08:10;7.20;94.10
13086;DHT22;6609;49.882;8.664;2022-11-20T15:10:37;7.20;94.10
13086;DHT22;6609;49.882;8.664;2022-11-20T15:13:05;7.20;94.30
13086;DHT22;6609;49.882;8.664;2022-11-20T15:15:36;7.20;94.20
13086;DHT22;6609;49.882;8.664;2022-11-20T15:18:11;7.20;94.10
13086;DHT22;6609;49.882;8.664;2022-11-20T15:20:39;7.10;94.40
13086;DHT22;6609;49.882;8.664;2022-11-20T15:23:10;7.20;94.40
13086;DHT22;6609;49.882;8.664;2022-11-20T15:25:38;7.10;94.40
13086;DHT22;6609;49.882;8.664;2022-11-20T15:28:12;7.10;94.20
13086;DHT22;6609;49.882;8.664;2022-11-20T15:30:40;7.10;94.40
13086;DHT22;6609;49.882;8.664;2022-11-20T15:33:09;7.10;94.50
13086;DHT22;6609;49.882;8.664;2022-11-20T15:35:36;7.10;94.50
13086;DHT22;6609;49.882;8.664;2022-11-20T15:38:03;7.10;94.50
13086;DHT22;6609;49.882;8.664;2022-11-20T15:40:29;7.10;94.60
13086;DHT22;6609;49.882;8.664;2022-11-20T15:42:56;7.10;94.70
13086;DHT22;6609;49.882;8.664;2022-11-20T15:45:30;7.10;94.70
13086;DHT22;6609;49.882;8.664;2022-11-20T15:47:59;7.20;94.80
13086;DHT22;6609;49.882;8.664;2022-11-20T15:50:33;7.20;94.80
13086;DHT22;6609;49.882;8.664;2022-11-20T15:53:00;7.20;94.90
13086;DHT22;6609;49.882;8.664;2022-11-20T15:55:27;7.20;94.90
13086;DHT22;6609;49.882;8.664;2022-11-20T15:57:54;7.40;94.80
13086;DHT22;6609;49.882;8.664;2022-11-20T16:00:20;7.40;95.10
13086;DHT22;6609;49.882;8.664;2022-11-20T16:02:47;7.50;95.10
13086;DHT22;6609;49.882;8.664;2022-11-20T16:05:15;7.60;94.80
13086;DHT22;6609;49.882;8.664;2022-11-20T16:07:43;7.60;95.00
13086;DHT22;6609;49.882;8.664;2022-11-20T16:10:10;7.60;94.90
13086;DHT22;6609;49.882;8.664;2022-11-20T16:12:37;7.60;94.80
13086;DHT22;6609;49.882;8.664;2022-11-20T16:15:21;7.70;94.80
13086;DHT22;6609;49.882;8.664;2022-11-20T16:18:08;7.70;94.70
13086;DHT22;6609;49.882;8.664;2022-11-20T16:20:35;7.70;94.60
13086;DHT22;6609;49.882;8.664;2022-11-20T16:23:03;7.70;94.50
13086;DHT22;6609;49.882;8.664;2022-11-20T16:25:29;7.70;94.40
13086;DHT22;6609;49.882;8.664;2022-11-20T16:27:56;7.80;94.00
13086;DHT22;6609;49.882;8.664;2022-11-20T16:30:23;7.80;94.30
13086;DHT22;6609;49.882;8.664;2022-11-20T16:32:50;7.80;94.20